sensor_id;sensor_type;location;lat;lon;timestamp;P1;durP1;ratioP1;P2;durP2;ratioP2
11187;SDS011;5650;52.700;7.306;2023-07-31T00:00:47;4.72;;;2.03;;
11187;SDS011;5650;52.700;7.306;2023-07-31T00:03:17;4.47;;;2.45;;
11187;SDS011;5650;52.700;7.306;2023-07-31T00:05:44;2.80;;;1.92;;
11187;SDS011;5650;52.700;7.306;2023-07-31T00:08:22;3.97;;;2.33;;
11187;SDS011;5650;52.700;7.306;2023-07-31T00:11:01;3.10;;;2.25;;
11187;SDS011;5650;52.700;7.306;2023-07-31T00:13:29;3.05;;;2.00;;
11187;SDS011;5650;52.700;7.306;2023-07-31T00:16:02;5.50;;;2.20;;
11187;SDS011;5650;52.700;7.306;2023-07-31T00:18:32;3.90;;;2.38;;
11187;SDS011;5650;52.700;7.306;2023-07-31T00:21:02;3.60;;;2.08;;
11187;SDS011;5650;52.700;7.306;2023-07-31T00:23:37;4.50;;;2.47;;
11187;SDS011;5650;52.700;7.306;2023-07-31T00:26:04;2.95;;;2.22;;
11187;SDS011;5650;52.700;7.306;2023-07-31T00:28:31;3.20;;;2.13;;
11187;SDS011;5650;52.700;7.306;2023-07-31T00:30:58;3.88;;;2.30;;
11187;SDS011;5650;52.700;7.306;2023-07-31T00:33:29;6.72;;;2.20;;
11187;SDS011;5650;52.700;7.306;2023-07-31T00:35:57;4.53;;;2.55;;
11187;SDS011;5650;52.700;7.306;2023-07-31T00:38:25;3.92;;;2.63;;
11187;SDS011;5650;52.700;7.306;2023-07-31T00:40:53;2.97;;;2.28;;
11187;SDS011;5650;52.700;7.306;2023-07-31T00:43:26;5.28;;;2.42;;
11187;SDS011;5650;52.700;7.306;2023-07-31T00:45:53;4.82;;;2.38;;
11187;SDS011;5650;52.700;7.306;2023-07-31T00:48:35;7.38;;;2.53;;
11187;SDS011;5650;52.700;7.306;2023-07-31T00:51:03;4.22;;;2.20;;
11187;SDS011;5650;52.700;7.306;2023-07-31T00:53:31;3.58;;;2.10;;
11187;SDS011;5650;52.700;7.306;2023-07-31T00:56:03;4.40;;;2.40;;
11187;SDS011;5650;52.700;7.306;2023-07-31T00:58:33;3.20;;;2.40;;
11187;SDS011;5650;52.700;7.306;2023-07-31T01:01:04;3.20;;;2.10;;
11187;SDS011;5650;52.700;7.306;2023-07-31T01:03:34;3.97;;;2.38;;
11187;SDS011;5650;52.700;7.306;2023-07-31T01:06:07;5.95;;;2.42;;
11187;SDS011;5650;52.700;7.306;2023-07-31T01:08:54;2.90;;;2.50;;
11187;SDS011;5650;52.700;7.306;2023-07-31T01:11:33;4.50;;;2.60;;
11187;SDS011;5650;52.700;7.306;2023-07-31T01:14:02;2.67;;;2.35;;
11187;SDS011;5650;52.700;7.306;2023-07-31T01:16:35;4.13;;;2.13;;
11187;SDS011;5650;52.700;7.306;2023-07-31T01:19:02;3.75;;;2.70;;
11187;SDS011;5650;52.700;7.306;2023-07-31T01:21:53;4.47;;;2.40;;
11187;SDS011;5650;52.700;7.306;2023-07-31T01:24:35;3.88;;;2.80;;
11187;SDS011;5650;52.700;7.306;2023-07-31T01:27:12;3.38;;;2.42;;
11187;SDS011;5650;52.700;7.306;2023-07-31T01:29:43;2.50;;;2.30;;
11187;SDS011;5650;52.700;7.306;2023-07-31T01:32:16;2.90;;;2.22;;
11187;SDS011;5650;52.700;7.306;2023-07-31T01:34:45;4.07;;;2.13;;
11187;SDS011;5650;52.700;7.306;2023-07-31T01:37:13;3.25;;;2.08;;
11187;SDS011;5650;52.700;7.306;2023-07-31T01:39:40;3.03;;;2.50;;
11187;SDS011;5650;52.700;7.306;2023-07-31T01:42:08;2.70;;;2.17;;
11187;SDS011;5650;52.700;7.306;2023-07-31T01:44:36;2.97;;;2.38;;
11187;SDS011;5650;52.700;7.306;2023-07-31T01:47:03;2.53;;;2.30;;
11187;SDS011;5650;52.700;7.306;2023-07-31T01:49:40;5.15;;;2.28;;
11187;SDS011;5650;52.700;7.306;2023-07-31T01:52:07;3.65;;;2.50;;
11187;SDS011;5650;52.700;7.306;2023-07-31T01:54:34;2.70;;;2.30;;
11187;SDS011;5650;52.700;7.306;2023-07-31T01:57:02;4.80;;;2.40;;
11187;SDS011;5650;52.700;7.306;2023-07-31T01:59:30;2.30;;;1.88;;
11187;SDS011;5650;52.700;7.306;2023-07-31T02:02:00;6.28;;;2.10;;
11187;SDS011;5650;52.700;7.306;2023-07-31T02:04:35;2.15;;;1.90;;
11187;SDS011;5650;52.700;7.306;2023-07-31T02:07:06;2.05;;;1.80;;
11187;SDS011;5650;52.700;7.306;2023-07-31T02:09:36;2.60;;;1.95;;
11187;SDS011;5650;52.700;7.306;2023-07-31T02:12:07;2.10;;;1.90;;
11187;SDS011;5650;52.700;7.306;2023-07-31T02:14:39;1.83;;;1.73;;
11187;SDS011;5650;52.700;7.306;2023-07-31T02:17:06;3.05;;;1.65;;
11187;SDS011;5650;52.700;7.306;2023-07-31T02:19:33;3.92;;;1.65;;
11187;SDS011;5650;52.700;7.306;2023-07-31T02:22:06;2.45;;;1.90;;
11187;SDS011;5650;52.700;7.306;2023-07-31T02:24:43;1.90;;;1.70;;
11187;SDS011;5650;52.700;7.306;2023-07-31T02:27:13;2.00;;;1.58;;
11187;SDS011;5650;52.700;7.306;2023-07-31T02:29:42;1.48;;;1.35;;
11187;SDS011;5650;52.700;7.306;2023-07-31T02:32:09;7.03;;;1.60;;
11187;SDS011;5650;52.700;7.306;2023-07-31T02:34:36;1.92;;;1.60;;
11187;SDS011;5650;52.700;7.306;2023-07-31T02:37:03;1.75;;;1.63;;
11187;SDS011;5650;52.700;7.306;2023-07-31T02:39:30;1.42;;;1.33;;
11187;SDS011;5650;52.700;7.306;2023-07-31T02:41:59;2.58;;;1.60;;
11187;SDS011;5650;52.700;7.306;2023-07-31T02:44:26;4.10;;;1.45;;
11187;SDS011;5650;52.700;7.306;2023-07-31T02:46:55;1.20;;;1.10;;
11187;SDS011;5650;52.700;7.306;2023-07-31T02:49:22;1.27;;;1.17;;
11187;SDS011;5650;52.700;7.306;2023-07-31T02:51:56;1.58;;;1.20;;
11187;SDS011;5650;52.700;7.306;2023-07-31T02:54:23;1.30;;;1.20;;
11187;SDS011;5650;52.700;7.306;2023-07-31T02:56:53;1.48;;;1.30;;
11187;SDS011;5650;52.700;7.306;2023-07-31T02:59:25;1.77;;;1.10;;
11187;SDS011;5650;52.700;7.306;2023-07-31T03:01:59;1.15;;;0.90;;
11187;SDS011;5650;52.700;7.306;2023-07-31T03:04:41;1.55;;;1.17;;
11187;SDS011;5650;52.700;7.306;2023-07-31T03:07:08;1.35;;;1.10;;
11187;SDS011;5650;52.700;7.306;2023-07-31T03:09:38;1.75;;;1.30;;
11187;SDS011;5650;52.700;7.306;2023-07-31T03:12:13;1.65;;;1.30;;
11187;SDS011;5650;52.700;7.306;2023-07-31T03:14:40;10.43;;;1.40;;
11187;SDS011;5650;52.700;7.306;2023-07-31T03:17:11;1.35;;;1.25;;
11187;SDS011;5650;52.700;7.306;2023-07-31T03:19:41;1.63;;;1.50;;
11187;SDS011;5650;52.700;7.306;2023-07-31T03:22:11;4.43;;;1.42;;
11187;SDS011;5650;52.700;7.306;2023-07-31T03:24:44;2.80;;;1.10;;
11187;SDS011;5650;52.700;7.306;2023-07-31T03:27:17;1.05;;;1.00;;
11187;SDS011;5650;52.700;7.306;2023-07-31T03:29:45;1.88;;;1.10;;
11187;SDS011;5650;52.700;7.306;2023-07-31T03:32:13;1.70;;;1.08;;
11187;SDS011;5650;52.700;7.306;2023-07-31T03:34:42;1.30;;;1.10;;
11187;SDS011;5650;52.700;7.306;2023-07-31T03:37:09;1.33;;;1.20;;
11187;SDS011;5650;52.700;7.306;2023-07-31T03:39:36;1.17;;;1.00;;
11187;SDS011;5650;52.700;7.306;2023-07-31T03:42:13;1.20;;;1.00;;
11187;SDS011;5650;52.700;7.306;2023-07-31T03:44:46;2.22;;;1.23;;
11187;SDS011;5650;52.700;7.306;2023-07-31T03:47:14;2.15;;;1.25;;
11187;SDS011;5650;52.700;7.306;2023-07-31T03:49:48;1.48;;;1.10;;
11187;SDS011;5650;52.700;7.306;2023-07-31T03:52:15;1.65;;;1.17;;
11187;SDS011;5650;52.700;7.306;2023-07-31T03:54:42;1.30;;;1.17;;
11187;SDS011;5650;52.700;7.306;2023-07-31T03:57:10;1.55;;;1.13;;
11187;SDS011;5650;52.700;7.306;2023-07-31T03:59:38;1.20;;;1.10;;
11187;SDS011;5650;52.700;7.306;2023-07-31T04:02:08;1.52;;;1.30;;
11187;SDS011;5650;52.700;7.306;2023-07-31T04:04:37;1.77;;;1.23;;
11187;SDS011;5650;52.700;7.306;2023-07-31T04:07:10;1.20;;;1.10;;
11187;SDS011;5650;52.700;7.306;2023-07-31T04:09:43;3.67;;;1.30;;
11187;SDS011;5650;52.700;7.306;2023-07-31T04:12:11;3.13;;;1.30;;
11187;SDS011;5650;52.700;7.306;2023-07-31T04:14:40;1.58;;;1.30;;
11187;SDS011;5650;52.700;7.306;2023-07-31T04:17:08;1.40;;;1.10;;
11187;SDS011;5650;52.700;7.306;2023-07-31T04:19:48;1.73;;;1.10;;
11187;SDS011;5650;52.700;7.306;2023-07-31T04:22:22;1.35;;;1.25;;
11187;SDS011;5650;52.700;7.306;2023-07-31T04:24:52;1.30;;;1.05;;
11187;SDS011;5650;52.700;7.306;2023-07-31T04:27:23;2.25;;;1.10;;
11187;SDS011;5650;52.700;7.306;2023-07-31T04:29:51;1.40;;;1.20;;
11187;SDS011;5650;52.700;7.306;2023-07-31T04:32:20;1.00;;;0.90;;
11187;SDS011;5650;52.700;7.306;2023-07-31T04:34:49;1.50;;;1.08;;
11187;SDS011;5650;52.700;7.306;2023-07-31T04:37:16;1.38;;;1.00;;
11187;SDS011;5650;52.700;7.306;2023-07-31T04:39:46;0.88;;;0.88;;
11187;SDS011;5650;52.700;7.306;2023-07-31T04:42:13;2.00;;;1.10;;
11187;SDS011;5650;52.700;7.306;2023-07-31T04:44:41;2.10;;;0.95;;
11187;SDS011;5650;52.700;7.306;2023-07-31T04:47:11;2.65;;;1.42;;
11187;SDS011;5650;52.700;7.306;2023-07-31T04:49:41;4.20;;;1.88;;
11187;SDS011;5650;52.700;7.306;2023-07-31T04:52:10;4.00;;;1.80;;
11187;SDS011;5650;52.700;7.306;2023-07-31T04:54:40;2.95;;;2.03;;
11187;SDS011;5650;52.700;7.306;2023-07-31T04:57:07;6.35;;;2.83;;
11187;SDS011;5650;52.700;7.306;2023-07-31T04:59:46;6.43;;;2.85;;
11187;SDS011;5650;52.700;7.306;2023-07-31T05:02:16;9.40;;;3.42;;
11187;SDS011;5650;52.700;7.306;2023-07-31T05:04:43;13.48;;;4.05;;
11187;SDS011;5650;52.700;7.306;2023-07-31T05:07:15;8.50;;;4.30;;
11187;SDS011;5650;52.700;7.306;2023-07-31T05:09:45;18.55;;;4.65;;
11187;SDS011;5650;52.700;7.306;2023-07-31T05:12:20;14.60;;;5.43;;
11187;SDS011;5650;52.700;7.306;2023-07-31T05:14:48;9.13;;;4.53;;
11187;SDS011;5650;52.700;7.306;2023-07-31T05:17:15;10.98;;;5.47;;
11187;SDS011;5650;52.700;7.306;2023-07-31T05:19:42;11.10;;;5.15;;
11187;SDS011;5650;52.700;7.306;2023-07-31T05:22:09;12.07;;;5.30;;
11187;SDS011;5650;52.700;7.306;2023-07-31T05:24:41;16.40;;;5.75;;
11187;SDS011;5650;52.700;7.306;2023-07-31T05:27:08;12.65;;;5.60;;
11187;SDS011;5650;52.700;7.306;2023-07-31T05:29:42;14.23;;;6.00;;
11187;SDS011;5650;52.700;7.306;2023-07-31T05:32:09;14.73;;;5.15;;
11187;SDS011;5650;52.700;7.306;2023-07-31T05:34:37;11.57;;;5.55;;
11187;SDS011;5650;52.700;7.306;2023-07-31T05:37:04;10.00;;;5.28;;
11187;SDS011;5650;52.700;7.306;2023-07-31T05:39:32;12.48;;;5.55;;
11187;SDS011;5650;52.700;7.306;2023-07-31T05:42:06;12.20;;;5.85;;
11187;SDS011;5650;52.700;7.306;2023-07-31T05:44:33;13.65;;;6.18;;
11187;SDS011;5650;52.700;7.306;2023-07-31T05:47:00;15.60;;;6.55;;
11187;SDS011;5650;52.700;7.306;2023-07-31T05:49:31;13.15;;;5.40;;
11187;SDS011;5650;52.700;7.306;2023-07-31T05:51:58;12.55;;;6.55;;
11187;SDS011;5650;52.700;7.306;2023-07-31T05:54:25;19.38;;;6.70;;
11187;SDS011;5650;52.700;7.306;2023-07-31T05:57:00;14.00;;;6.07;;
11187;SDS011;5650;52.700;7.306;2023-07-31T05:59:32;17.52;;;6.50;;
11187;SDS011;5650;52.700;7.306;2023-07-31T06:01:59;13.43;;;7.28;;
11187;SDS011;5650;52.700;7.306;2023-07-31T06:04:33;17.65;;;7.13;;
11187;SDS011;5650;52.700;7.306;2023-07-31T06:07:03;19.50;;;8.15;;
11187;SDS011;5650;52.700;7.306;2023-07-31T06:09:33;19.98;;;8.05;;
11187;SDS011;5650;52.700;7.306;2023-07-31T06:12:03;18.60;;;7.78;;
11187;SDS011;5650;52.700;7.306;2023-07-31T06:14:35;20.92;;;8.50;;
11187;SDS011;5650;52.700;7.306;2023-07-31T06:17:09;24.10;;;7.95;;
11187;SDS011;5650;52.700;7.306;2023-07-31T06:19:36;22.30;;;8.18;;
11187;SDS011;5650;52.700;7.306;2023-07-31T06:22:03;22.33;;;9.00;;
11187;SDS011;5650;52.700;7.306;2023-07-31T06:24:36;20.67;;;8.82;;
11187;SDS011;5650;52.700;7.306;2023-07-31T06:27:09;21.33;;;9.43;;
11187;SDS011;5650;52.700;7.306;2023-07-31T06:29:38;17.65;;;8.75;;
11187;SDS011;5650;52.700;7.306;2023-07-31T06:32:05;21.77;;;9.13;;
11187;SDS011;5650;52.700;7.306;2023-07-31T06:34:33;24.02;;;8.65;;
11187;SDS011;5650;52.700;7.306;2023-07-31T06:37:06;21.58;;;8.93;;
11187;SDS011;5650;52.700;7.306;2023-07-31T06:39:36;18.45;;;8.23;;
11187;SDS011;5650;52.700;7.306;2023-07-31T06:42:12;18.98;;;8.88;;
11187;SDS011;5650;52.700;7.306;2023-07-31T06:44:41;20.98;;;9.13;;
11187;SDS011;5650;52.700;7.306;2023-07-31T06:47:08;20.70;;;8.57;;
11187;SDS011;5650;52.700;7.306;2023-07-31T06:49:39;20.65;;;8.70;;
11187;SDS011;5650;52.700;7.306;2023-07-31T06:52:09;25.08;;;9.38;;
11187;SDS011;5650;52.700;7.306;2023-07-31T06:54:39;20.83;;;9.15;;
11187;SDS011;5650;52.700;7.306;2023-07-31T06:57:09;22.13;;;9.20;;
11187;SDS011;5650;52.700;7.306;2023-07-31T06:59:48;24.35;;;9.65;;
11187;SDS011;5650;52.700;7.306;2023-07-31T07:02:16;18.77;;;9.13;;
11187;SDS011;5650;52.700;7.306;2023-07-31T07:04:43;21.70;;;9.10;;
11187;SDS011;5650;52.700;7.306;2023-07-31T07:07:10;23.23;;;9.27;;
11187;SDS011;5650;52.700;7.306;2023-07-31T07:09:37;25.83;;;8.88;;
11187;SDS011;5650;52.700;7.306;2023-07-31T07:12:13;19.88;;;8.82;;
11187;SDS011;5650;52.700;7.306;2023-07-31T07:14:42;24.60;;;8.95;;
11187;SDS011;5650;52.700;7.306;2023-07-31T07:17:11;23.65;;;8.13;;
11187;SDS011;5650;52.700;7.306;2023-07-31T07:19:48;22.33;;;8.48;;
11187;SDS011;5650;52.700;7.306;2023-07-31T07:22:15;26.10;;;9.20;;
11187;SDS011;5650;52.700;7.306;2023-07-31T07:24:51;22.27;;;8.63;;
11187;SDS011;5650;52.700;7.306;2023-07-31T07:27:24;22.85;;;9.23;;
11187;SDS011;5650;52.700;7.306;2023-07-31T07:29:55;15.07;;;7.78;;
11187;SDS011;5650;52.700;7.306;2023-07-31T07:32:23;20.10;;;8.60;;
11187;SDS011;5650;52.700;7.306;2023-07-31T07:34:56;19.38;;;8.18;;
11187;SDS011;5650;52.700;7.306;2023-07-31T07:37:29;23.08;;;7.97;;
11187;SDS011;5650;52.700;7.306;2023-07-31T07:40:02;15.05;;;7.18;;
11187;SDS011;5650;52.700;7.306;2023-07-31T07:42:30;17.15;;;6.63;;
11187;SDS011;5650;52.700;7.306;2023-07-31T07:44:59;15.15;;;6.68;;
11187;SDS011;5650;52.700;7.306;2023-07-31T07:47:26;19.63;;;8.10;;
11187;SDS011;5650;52.700;7.306;2023-07-31T07:49:53;13.52;;;5.88;;
11187;SDS011;5650;52.700;7.306;2023-07-31T07:52:20;14.85;;;6.55;;
11187;SDS011;5650;52.700;7.306;2023-07-31T07:54:54;16.02;;;5.60;;
11187;SDS011;5650;52.700;7.306;2023-07-31T07:57:30;12.10;;;5.35;;
11187;SDS011;5650;52.700;7.306;2023-07-31T07:59:58;13.70;;;5.78;;
11187;SDS011;5650;52.700;7.306;2023-07-31T08:02:28;11.82;;;5.28;;
11187;SDS011;5650;52.700;7.306;2023-07-31T08:04:58;11.35;;;5.18;;
11187;SDS011;5650;52.700;7.306;2023-07-31T08:07:35;9.57;;;4.32;;
11187;SDS011;5650;52.700;7.306;2023-07-31T08:10:02;15.93;;;5.05;;
11187;SDS011;5650;52.700;7.306;2023-07-31T08:12:30;12.90;;;4.95;;
11187;SDS011;5650;52.700;7.306;2023-07-31T08:15:06;18.73;;;4.65;;
11187;SDS011;5650;52.700;7.306;2023-07-31T08:17:34;12.40;;;5.05;;
11187;SDS011;5650;52.700;7.306;2023-07-31T08:20:03;7.28;;;3.63;;
11187;SDS011;5650;52.700;7.306;2023-07-31T08:22:50;6.85;;;3.63;;
11187;SDS011;5650;52.700;7.306;2023-07-31T08:25:18;9.05;;;4.70;;
11187;SDS011;5650;52.700;7.306;2023-07-31T08:27:45;8.23;;;3.97;;
11187;SDS011;5650;52.700;7.306;2023-07-31T08:30:13;6.45;;;3.80;;
11187;SDS011;5650;52.700;7.306;2023-07-31T08:32:40;11.05;;;4.40;;
11187;SDS011;5650;52.700;7.306;2023-07-31T08:35:16;7.47;;;4.05;;
11187;SDS011;5650;52.700;7.306;2023-07-31T08:37:43;10.63;;;4.05;;
11187;SDS011;5650;52.700;7.306;2023-07-31T08:40:13;7.18;;;3.72;;
11187;SDS011;5650;52.700;7.306;2023-07-31T08:42:43;8.52;;;3.47;;
11187;SDS011;5650;52.700;7.306;2023-07-31T08:45:14;9.82;;;3.47;;
11187;SDS011;5650;52.700;7.306;2023-07-31T08:47:44;6.90;;;3.47;;
11187;SDS011;5650;52.700;7.306;2023-07-31T08:50:12;6.70;;;3.20;;
11187;SDS011;5650;52.700;7.306;2023-07-31T08:52:40;9.20;;;3.17;;
11187;SDS011;5650;52.700;7.306;2023-07-31T08:55:13;4.35;;;2.65;;
11187;SDS011;5650;52.700;7.306;2023-07-31T08:57:41;6.00;;;3.10;;
11187;SDS011;5650;52.700;7.306;2023-07-31T09:00:09;5.15;;;2.90;;
11187;SDS011;5650;52.700;7.306;2023-07-31T09:02:41;4.30;;;2.97;;
11187;SDS011;5650;52.700;7.306;2023-07-31T09:05:18;7.65;;;3.08;;
11187;SDS011;5650;52.700;7.306;2023-07-31T09:07:49;3.72;;;2.20;;
11187;SDS011;5650;52.700;7.306;2023-07-31T09:10:17;3.95;;;2.47;;
11187;SDS011;5650;52.700;7.306;2023-07-31T09:12:47;3.50;;;1.98;;
11187;SDS011;5650;52.700;7.306;2023-07-31T09:15:15;3.55;;;2.22;;
11187;SDS011;5650;52.700;7.306;2023-07-31T09:17:50;3.78;;;2.30;;
11187;SDS011;5650;52.700;7.306;2023-07-31T09:20:26;4.03;;;2.40;;
11187;SDS011;5650;52.700;7.306;2023-07-31T09:22:54;4.15;;;2.25;;
11187;SDS011;5650;52.700;7.306;2023-07-31T09:25:22;3.75;;;2.05;;
11187;SDS011;5650;52.700;7.306;2023-07-31T09:27:57;6.00;;;1.90;;
11187;SDS011;5650;52.700;7.306;2023-07-31T09:30:32;1.80;;;1.38;;
11187;SDS011;5650;52.700;7.306;2023-07-31T09:33:16;3.38;;;1.77;;
11187;SDS011;5650;52.700;7.306;2023-07-31T09:35:44;3.08;;;1.67;;
11187;SDS011;5650;52.700;7.306;2023-07-31T09:38:12;2.75;;;1.30;;
11187;SDS011;5650;52.700;7.306;2023-07-31T09:40:41;3.22;;;1.10;;
11187;SDS011;5650;52.700;7.306;2023-07-31T09:43:12;2.10;;;1.10;;
11187;SDS011;5650;52.700;7.306;2023-07-31T09:45:43;2.13;;;1.00;;
11187;SDS011;5650;52.700;7.306;2023-07-31T09:48:12;3.05;;;0.90;;
11187;SDS011;5650;52.700;7.306;2023-07-31T09:50:43;1.10;;;0.90;;
11187;SDS011;5650;52.700;7.306;2023-07-31T09:53:12;1.10;;;0.93;;
11187;SDS011;5650;52.700;7.306;2023-07-31T09:55:39;1.05;;;0.88;;
11187;SDS011;5650;52.700;7.306;2023-07-31T09:58:08;2.15;;;0.95;;
11187;SDS011;5650;52.700;7.306;2023-07-31T10:00:36;1.20;;;0.80;;
11187;SDS011;5650;52.700;7.306;2023-07-31T10:03:04;1.00;;;0.65;;
11187;SDS011;5650;52.700;7.306;2023-07-31T10:05:36;3.63;;;1.40;;
11187;SDS011;5650;52.700;7.306;2023-07-31T10:08:12;0.70;;;0.70;;
11187;SDS011;5650;52.700;7.306;2023-07-31T10:10:45;1.02;;;0.60;;
11187;SDS011;5650;52.700;7.306;2023-07-31T10:13:12;0.47;;;0.47;;
11187;SDS011;5650;52.700;7.306;2023-07-31T10:15:40;0.40;;;0.40;;
11187;SDS011;5650;52.700;7.306;2023-07-31T10:18:08;0.30;;;0.30;;
11187;SDS011;5650;52.700;7.306;2023-07-31T10:20:36;0.93;;;0.60;;
11187;SDS011;5650;52.700;7.306;2023-07-31T10:23:06;0.38;;;0.30;;
11187;SDS011;5650;52.700;7.306;2023-07-31T10:25:36;0.73;;;0.32;;
11187;SDS011;5650;52.700;7.306;2023-07-31T10:28:04;0.43;;;0.43;;
11187;SDS011;5650;52.700;7.306;2023-07-31T10:30:32;0.25;;;0.25;;
11187;SDS011;5650;52.700;7.306;2023-07-31T10:33:03;0.30;;;0.30;;
11187;SDS011;5650;52.700;7.306;2023-07-31T10:35:35;0.40;;;0.40;;
11187;SDS011;5650;52.700;7.306;2023-07-31T10:38:09;0.60;;;0.43;;
11187;SDS011;5650;52.700;7.306;2023-07-31T10:40:38;2.20;;;0.63;;
11187;SDS011;5650;52.700;7.306;2023-07-31T10:43:06;0.55;;;0.50;;
11187;SDS011;5650;52.700;7.306;2023-07-31T10:45:36;0.60;;;0.50;;
11187;SDS011;5650;52.700;7.306;2023-07-31T10:48:05;0.55;;;0.40;;
11187;SDS011;5650;52.700;7.306;2023-07-31T10:50:36;2.45;;;0.60;;
11187;SDS011;5650;52.700;7.306;2023-07-31T10:53:05;0.45;;;0.35;;
11187;SDS011;5650;52.700;7.306;2023-07-31T10:55:35;1.27;;;0.50;;
11187;SDS011;5650;52.700;7.306;2023-07-31T10:58:08;0.40;;;0.40;;
11187;SDS011;5650;52.700;7.306;2023-07-31T11:00:36;0.35;;;0.35;;
11187;SDS011;5650;52.700;7.306;2023-07-31T11:03:04;0.65;;;0.40;;
11187;SDS011;5650;52.700;7.306;2023-07-31T11:05:47;0.75;;;0.30;;
11187;SDS011;5650;52.700;7.306;2023-07-31T11:08:19;0.95;;;0.50;;
11187;SDS011;5650;52.700;7.306;2023-07-31T11:10:49;1.70;;;0.50;;
11187;SDS011;5650;52.700;7.306;2023-07-31T11:13:19;2.38;;;0.60;;
11187;SDS011;5650;52.700;7.306;2023-07-31T11:15:47;0.40;;;0.40;;
11187;SDS011;5650;52.700;7.306;2023-07-31T11:18:14;0.30;;;0.30;;
11187;SDS011;5650;52.700;7.306;2023-07-31T11:20:42;2.63;;;0.50;;
11187;SDS011;5650;52.700;7.306;2023-07-31T11:23:09;0.73;;;0.50;;
11187;SDS011;5650;52.700;7.306;2023-07-31T11:25:37;0.60;;;0.60;;
11187;SDS011;5650;52.700;7.306;2023-07-31T11:28:08;0.68;;;0.52;;
11187;SDS011;5650;52.700;7.306;2023-07-31T11:30:37;0.80;;;0.70;;
11187;SDS011;5650;52.700;7.306;2023-07-31T11:33:05;0.70;;;0.70;;
11187;SDS011;5650;52.700;7.306;2023-07-31T11:35:33;2.08;;;1.00;;
11187;SDS011;5650;52.700;7.306;2023-07-31T11:38:02;1.30;;;1.20;;
11187;SDS011;5650;52.700;7.306;2023-07-31T11:40:29;3.22;;;1.00;;
11187;SDS011;5650;52.700;7.306;2023-07-31T11:42:57;1.50;;;1.15;;
11187;SDS011;5650;52.700;7.306;2023-07-31T11:45:26;1.63;;;1.15;;
11187;SDS011;5650;52.700;7.306;2023-07-31T11:47:54;1.25;;;1.15;;
11187;SDS011;5650;52.700;7.306;2023-07-31T11:50:22;2.38;;;1.00;;
11187;SDS011;5650;52.700;7.306;2023-07-31T11:52:52;1.23;;;1.05;;
11187;SDS011;5650;52.700;7.306;2023-07-31T11:55:22;1.23;;;1.13;;
11187;SDS011;5650;52.700;7.306;2023-07-31T11:57:50;0.90;;;0.90;;
11187;SDS011;5650;52.700;7.306;2023-07-31T12:00:19;2.92;;;1.55;;
11187;SDS011;5650;52.700;7.306;2023-07-31T12:02:48;2.53;;;1.15;;
11187;SDS011;5650;52.700;7.306;2023-07-31T12:05:17;1.70;;;1.48;;
11187;SDS011;5650;52.700;7.306;2023-07-31T12:07:44;2.03;;;1.70;;
11187;SDS011;5650;52.700;7.306;2023-07-31T12:10:22;2.20;;;1.90;;
11187;SDS011;5650;52.700;7.306;2023-07-31T12:12:55;2.00;;;1.80;;
11187;SDS011;5650;52.700;7.306;2023-07-31T12:15:32;3.70;;;1.77;;
11187;SDS011;5650;52.700;7.306;2023-07-31T12:18:01;2.30;;;2.10;;
11187;SDS011;5650;52.700;7.306;2023-07-31T12:20:31;2.58;;;2.38;;
11187;SDS011;5650;52.700;7.306;2023-07-31T12:22:59;3.97;;;2.58;;
11187;SDS011;5650;52.700;7.306;2023-07-31T12:25:30;2.35;;;2.15;;
11187;SDS011;5650;52.700;7.306;2023-07-31T12:27:58;4.65;;;2.70;;
11187;SDS011;5650;52.700;7.306;2023-07-31T12:30:32;5.32;;;2.90;;
11187;SDS011;5650;52.700;7.306;2023-07-31T12:33:05;4.65;;;3.13;;
11187;SDS011;5650;52.700;7.306;2023-07-31T12:35:37;6.35;;;3.10;;
11187;SDS011;5650;52.700;7.306;2023-07-31T12:38:06;4.57;;;3.05;;
11187;SDS011;5650;52.700;7.306;2023-07-31T12:40:35;3.88;;;3.28;;
11187;SDS011;5650;52.700;7.306;2023-07-31T12:43:03;7.50;;;3.50;;
11187;SDS011;5650;52.700;7.306;2023-07-31T12:45:36;6.40;;;3.88;;
11187;SDS011;5650;52.700;7.306;2023-07-31T12:48:11;4.15;;;3.42;;
11187;SDS011;5650;52.700;7.306;2023-07-31T12:50:42;4.35;;;3.40;;
11187;SDS011;5650;52.700;7.306;2023-07-31T12:53:16;3.60;;;3.30;;
11187;SDS011;5650;52.700;7.306;2023-07-31T12:55:46;3.92;;;3.33;;
11187;SDS011;5650;52.700;7.306;2023-07-31T12:58:13;4.45;;;3.25;;
11187;SDS011;5650;52.700;7.306;2023-07-31T13:00:44;3.67;;;3.38;;
11187;SDS011;5650;52.700;7.306;2023-07-31T13:03:12;3.95;;;3.45;;
11187;SDS011;5650;52.700;7.306;2023-07-31T13:05:40;6.10;;;3.85;;
11187;SDS011;5650;52.700;7.306;2023-07-31T13:08:10;4.00;;;3.60;;
11187;SDS011;5650;52.700;7.306;2023-07-31T13:10:44;4.05;;;3.28;;
11187;SDS011;5650;52.700;7.306;2023-07-31T13:13:14;4.35;;;3.30;;
11187;SDS011;5650;52.700;7.306;2023-07-31T13:15:44;3.55;;;3.25;;
11187;SDS011;5650;52.700;7.306;2023-07-31T13:18:12;3.30;;;3.00;;
11187;SDS011;5650;52.700;7.306;2023-07-31T13:20:47;4.35;;;3.38;;
11187;SDS011;5650;52.700;7.306;2023-07-31T13:23:20;5.43;;;3.10;;
11187;SDS011;5650;52.700;7.306;2023-07-31T13:25:47;2.95;;;2.65;;
11187;SDS011;5650;52.700;7.306;2023-07-31T13:28:20;9.02;;;2.60;;
11187;SDS011;5650;52.700;7.306;2023-07-31T13:30:50;2.88;;;2.67;;
11187;SDS011;5650;52.700;7.306;2023-07-31T13:33:19;2.60;;;2.40;;
11187;SDS011;5650;52.700;7.306;2023-07-31T13:35:46;3.65;;;2.90;;
11187;SDS011;5650;52.700;7.306;2023-07-31T13:38:19;3.83;;;3.10;;
11187;SDS011;5650;52.700;7.306;2023-07-31T13:40:46;3.47;;;3.05;;
11187;SDS011;5650;52.700;7.306;2023-07-31T13:43:22;6.15;;;3.58;;
11187;SDS011;5650;52.700;7.306;2023-07-31T13:45:51;6.00;;;3.75;;
11187;SDS011;5650;52.700;7.306;2023-07-31T13:48:20;4.60;;;3.55;;
11187;SDS011;5650;52.700;7.306;2023-07-31T13:50:50;5.13;;;3.90;;
11187;SDS011;5650;52.700;7.306;2023-07-31T13:53:20;3.55;;;3.20;;
11187;SDS011;5650;52.700;7.306;2023-07-31T13:55:50;5.13;;;3.47;;
11187;SDS011;5650;52.700;7.306;2023-07-31T13:58:17;5.32;;;3.30;;
11187;SDS011;5650;52.700;7.306;2023-07-31T14:00:44;4.03;;;3.10;;
11187;SDS011;5650;52.700;7.306;2023-07-31T14:03:17;3.50;;;3.20;;
11187;SDS011;5650;52.700;7.306;2023-07-31T14:05:52;4.50;;;3.13;;
11187;SDS011;5650;52.700;7.306;2023-07-31T14:08:23;3.10;;;2.80;;
11187;SDS011;5650;52.700;7.306;2023-07-31T14:10:50;3.97;;;3.05;;
11187;SDS011;5650;52.700;7.306;2023-07-31T14:13:21;3.95;;;2.95;;
11187;SDS011;5650;52.700;7.306;2023-07-31T14:15:48;3.30;;;3.00;;
11187;SDS011;5650;52.700;7.306;2023-07-31T14:18:15;4.68;;;3.25;;
11187;SDS011;5650;52.700;7.306;2023-07-31T14:20:44;4.30;;;2.83;;
11187;SDS011;5650;52.700;7.306;2023-07-31T14:23:11;6.45;;;3.08;;
11187;SDS011;5650;52.700;7.306;2023-07-31T14:25:38;3.13;;;2.60;;
11187;SDS011;5650;52.700;7.306;2023-07-31T14:28:06;2.33;;;1.90;;
11187;SDS011;5650;52.700;7.306;2023-07-31T14:30:33;3.08;;;2.05;;
11187;SDS011;5650;52.700;7.306;2023-07-31T14:33:00;3.63;;;1.60;;
11187;SDS011;5650;52.700;7.306;2023-07-31T14:35:46;3.38;;;1.35;;
11187;SDS011;5650;52.700;7.306;2023-07-31T14:38:13;2.72;;;1.50;;
11187;SDS011;5650;52.700;7.306;2023-07-31T14:40:46;3.40;;;1.40;;
11187;SDS011;5650;52.700;7.306;2023-07-31T14:43:13;3.00;;;1.40;;
11187;SDS011;5650;52.700;7.306;2023-07-31T14:45:40;2.03;;;1.30;;
11187;SDS011;5650;52.700;7.306;2023-07-31T14:48:07;1.40;;;1.30;;
11187;SDS011;5650;52.700;7.306;2023-07-31T14:50:35;1.40;;;1.30;;
11187;SDS011;5650;52.700;7.306;2023-07-31T14:53:03;2.17;;;1.90;;
11187;SDS011;5650;52.700;7.306;2023-07-31T14:55:33;2.65;;;1.70;;
11187;SDS011;5650;52.700;7.306;2023-07-31T14:58:06;2.95;;;2.30;;
11187;SDS011;5650;52.700;7.306;2023-07-31T15:00:39;3.35;;;2.72;;
11187;SDS011;5650;52.700;7.306;2023-07-31T15:03:06;3.08;;;2.67;;
11187;SDS011;5650;52.700;7.306;2023-07-31T15:05:33;3.63;;;3.28;;
11187;SDS011;5650;52.700;7.306;2023-07-31T15:08:11;4.28;;;3.17;;
11187;SDS011;5650;52.700;7.306;2023-07-31T15:10:47;3.63;;;2.80;;
11187;SDS011;5650;52.700;7.306;2023-07-31T15:13:22;4.47;;;2.75;;
11187;SDS011;5650;52.700;7.306;2023-07-31T15:15:52;3.75;;;2.50;;